sensor_id;sensor_type;location;lat;lon;timestamp;P1;durP1;ratioP1;P2;durP2;ratioP2
75009;SDS011;63564;46.840;18.336;2024-03-02T00:01:57;9.60;;;5.37;;
75009;SDS011;63564;46.840;18.336;2024-03-02T00:04:58;8.25;;;5.57;;
75009;SDS011;63564;46.840;18.336;2024-03-02T00:07:58;7.70;;;5.10;;
75009;SDS011;63564;46.840;18.336;2024-03-02T00:11:00;10.77;;;5.47;;
75009;SDS011;63564;46.840;18.336;2024-03-02T00:14:02;11.43;;;5.97;;
75009;SDS011;63564;46.840;18.336;2024-03-02T00:17:03;12.43;;;5.27;;
75009;SDS011;63564;46.840;18.336;2024-03-02T00:20:03;10.77;;;5.63;;
75009;SDS011;63564;46.840;18.336;2024-03-02T00:23:09;8.20;;;4.72;;
75009;SDS011;63564;46.840;18.336;2024-03-02T00:26:12;11.75;;;5.32;;
75009;SDS011;63564;46.840;18.336;2024-03-02T00:29:15;7.40;;;3.77;;
75009;SDS011;63564;46.840;18.336;2024-03-02T00:32:17;15.02;;;4.25;;
75009;SDS011;63564;46.840;18.336;2024-03-02T00:35:17;9.63;;;4.73;;
75009;SDS011;63564;46.840;18.336;2024-03-02T00:38:18;8.40;;;4.85;;
75009;SDS011;63564;46.840;18.336;2024-03-02T00:44:27;9.48;;;4.63;;
75009;SDS011;63564;46.840;18.336;2024-03-02T00:47:29;9.57;;;5.80;;
75009;SDS011;63564;46.840;18.336;2024-03-02T00:50:30;9.50;;;5.17;;
75009;SDS011;63564;46.840;18.336;2024-03-02T00:53:30;13.32;;;4.47;;
75009;SDS011;63564;46.840;18.336;2024-03-02T00:56:35;8.38;;;4.20;;
75009;SDS011;63564;46.840;18.336;2024-03-02T00:59:35;8.20;;;4.40;;
75009;SDS011;63564;46.840;18.336;2024-03-02T01:02:36;9.18;;;4.40;;
75009;SDS011;63564;46.840;18.336;2024-03-02T01:05:36;10.90;;;4.63;;
75009;SDS011;63564;46.840;18.336;2024-03-02T01:08:37;5.43;;;3.23;;
75009;SDS011;63564;46.840;18.336;2024-03-02T01:11:37;8.35;;;4.07;;
75009;SDS011;63564;46.840;18.336;2024-03-02T01:14:38;5.87;;;4.03;;
75009;SDS011;63564;46.840;18.336;2024-03-02T01:17:38;5.97;;;4.00;;
75009;SDS011;63564;46.840;18.336;2024-03-02T01:20:39;5.45;;;4.18;;
75009;SDS011;63564;46.840;18.336;2024-03-02T01:23:39;13.25;;;4.60;;
75009;SDS011;63564;46.840;18.336;2024-03-02T01:26:39;6.87;;;4.17;;
75009;SDS011;63564;46.840;18.336;2024-03-02T01:29:40;7.83;;;4.27;;
75009;SDS011;63564;46.840;18.336;2024-03-02T01:32:40;6.40;;;4.70;;
75009;SDS011;63564;46.840;18.336;2024-03-02T01:35:40;8.63;;;4.63;;
75009;SDS011;63564;46.840;18.336;2024-03-02T01:38:41;4.40;;;2.83;;
75009;SDS011;63564;46.840;18.336;2024-03-02T01:41:41;5.43;;;3.83;;
75009;SDS011;63564;46.840;18.336;2024-03-02T01:44:42;11.07;;;4.00;;
75009;SDS011;63564;46.840;18.336;2024-03-02T01:47:42;7.50;;;3.75;;
75009;SDS011;63564;46.840;18.336;2024-03-02T01:50:42;5.47;;;4.13;;
75009;SDS011;63564;46.840;18.336;2024-03-02T01:53:43;5.77;;;3.43;;
75009;SDS011;63564;46.840;18.336;2024-03-02T01:56:43;8.23;;;4.03;;
75009;SDS011;63564;46.840;18.336;2024-03-02T01:59:45;6.60;;;3.30;;
75009;SDS011;63564;46.840;18.336;2024-03-02T02:02:47;8.10;;;4.03;;
75009;SDS011;63564;46.840;18.336;2024-03-02T02:05:48;9.30;;;4.70;;
75009;SDS011;63564;46.840;18.336;2024-03-02T02:08:48;6.33;;;3.40;;
75009;SDS011;63564;46.840;18.336;2024-03-02T02:11:50;11.70;;;5.35;;
75009;SDS011;63564;46.840;18.336;2024-03-02T02:14:50;7.18;;;4.10;;
75009;SDS011;63564;46.840;18.336;2024-03-02T02:17:51;9.33;;;3.60;;
75009;SDS011;63564;46.840;18.336;2024-03-02T02:20:51;5.95;;;3.65;;
75009;SDS011;63564;46.840;18.336;2024-03-02T02:23:51;4.87;;;2.87;;
75009;SDS011;63564;46.840;18.336;2024-03-02T02:26:52;8.33;;;4.80;;
75009;SDS011;63564;46.840;18.336;2024-03-02T02:29:52;12.60;;;4.70;;
75009;SDS011;63564;46.840;18.336;2024-03-02T02:32:52;9.07;;;4.57;;
75009;SDS011;63564;46.840;18.336;2024-03-02T02:35:53;9.82;;;4.32;;
75009;SDS011;63564;46.840;18.336;2024-03-02T02:38:53;9.53;;;2.93;;
75009;SDS011;63564;46.840;18.336;2024-03-02T02:41:54;8.87;;;3.97;;
75009;SDS011;63564;46.840;18.336;2024-03-02T02:44:54;8.23;;;4.37;;
75009;SDS011;63564;46.840;18.336;2024-03-02T02:47:55;9.47;;;4.53;;
75009;SDS011;63564;46.840;18.336;2024-03-02T02:50:55;9.97;;;3.93;;
75009;SDS011;63564;46.840;18.336;2024-03-02T02:53:56;13.55;;;5.13;;
75009;SDS011;63564;46.840;18.336;2024-03-02T02:56:56;7.17;;;4.47;;
75009;SDS011;63564;46.840;18.336;2024-03-02T02:59:57;7.30;;;3.87;;
75009;SDS011;63564;46.840;18.336;2024-03-02T03:02:57;8.63;;;4.20;;
75009;SDS011;63564;46.840;18.336;2024-03-02T03:05:57;9.57;;;4.17;;
75009;SDS011;63564;46.840;18.336;2024-03-02T03:08:58;7.57;;;4.27;;
75009;SDS011;63564;46.840;18.336;2024-03-02T03:11:58;8.37;;;4.63;;
75009;SDS011;63564;46.840;18.336;2024-03-02T03:14:58;9.43;;;4.00;;
75009;SDS011;63564;46.840;18.336;2024-03-02T03:17:59;6.67;;;3.57;;
75009;SDS011;63564;46.840;18.336;2024-03-02T03:21:00;5.10;;;2.87;;
75009;SDS011;63564;46.840;18.336;2024-03-02T03:24:00;5.47;;;3.50;;
75009;SDS011;63564;46.840;18.336;2024-03-02T03:27:01;11.93;;;3.42;;
75009;SDS011;63564;46.840;18.336;2024-03-02T03:30:01;7.27;;;3.87;;
75009;SDS011;63564;46.840;18.336;2024-03-02T03:33:02;6.93;;;3.55;;
75009;SDS011;63564;46.840;18.336;2024-03-02T03:36:03;8.60;;;3.47;;
75009;SDS011;63564;46.840;18.336;2024-03-02T03:39:04;8.30;;;3.43;;
75009;SDS011;63564;46.840;18.336;2024-03-02T03:42:06;3.70;;;2.65;;
75009;SDS011;63564;46.840;18.336;2024-03-02T03:45:06;7.87;;;4.17;;
75009;SDS011;63564;46.840;18.336;2024-03-02T03:48:07;12.02;;;3.95;;
75009;SDS011;63564;46.840;18.336;2024-03-02T03:51:07;6.03;;;3.37;;
75009;SDS011;63564;46.840;18.336;2024-03-02T03:54:08;10.20;;;3.33;;
75009;SDS011;63564;46.840;18.336;2024-03-02T03:57:08;6.60;;;3.53;;
75009;SDS011;63564;46.840;18.336;2024-03-02T04:00:09;9.30;;;4.27;;
75009;SDS011;63564;46.840;18.336;2024-03-02T04:03:10;3.85;;;2.38;;
75009;SDS011;63564;46.840;18.336;2024-03-02T04:06:10;5.13;;;2.97;;
75009;SDS011;63564;46.840;18.336;2024-03-02T04:09:11;9.00;;;3.97;;
75009;SDS011;63564;46.840;18.336;2024-03-02T04:12:11;8.32;;;4.68;;
75009;SDS011;63564;46.840;18.336;2024-03-02T04:15:13;8.57;;;3.80;;
75009;SDS011;63564;46.840;18.336;2024-03-02T04:18:13;9.25;;;4.50;;
75009;SDS011;63564;46.840;18.336;2024-03-02T04:21:13;7.30;;;3.45;;
75009;SDS011;63564;46.840;18.336;2024-03-02T04:24:14;8.30;;;3.90;;
75009;SDS011;63564;46.840;18.336;2024-03-02T04:27:14;10.90;;;4.40;;
75009;SDS011;63564;46.840;18.336;2024-03-02T04:30:14;6.03;;;3.83;;
75009;SDS011;63564;46.840;18.336;2024-03-02T04:33:15;9.67;;;4.30;;
75009;SDS011;63564;46.840;18.336;2024-03-02T04:36:15;9.80;;;3.37;;
75009;SDS011;63564;46.840;18.336;2024-03-02T04:39:16;9.40;;;3.80;;
75009;SDS011;63564;46.840;18.336;2024-03-02T04:42:16;9.23;;;4.65;;
75009;SDS011;63564;46.840;18.336;2024-03-02T04:45:17;9.33;;;4.17;;
75009;SDS011;63564;46.840;18.336;2024-03-02T04:48:17;5.57;;;3.43;;
75009;SDS011;63564;46.840;18.336;2024-03-02T04:51:18;9.23;;;4.47;;
75009;SDS011;63564;46.840;18.336;2024-03-02T04:54:18;6.05;;;3.72;;
75009;SDS011;63564;46.840;18.336;2024-03-02T04:57:18;8.43;;;4.37;;
75009;SDS011;63564;46.840;18.336;2024-03-02T05:00:19;6.87;;;3.87;;
75009;SDS011;63564;46.840;18.336;2024-03-02T05:03:19;8.37;;;4.33;;
75009;SDS011;63564;46.840;18.336;2024-03-02T05:06:20;6.23;;;4.60;;
75009;SDS011;63564;46.840;18.336;2024-03-02T05:09:20;5.40;;;3.73;;
75009;SDS011;63564;46.840;18.336;2024-03-02T05:12:20;7.57;;;3.73;;
75009;SDS011;63564;46.840;18.336;2024-03-02T05:15:23;7.88;;;3.47;;
75009;SDS011;63564;46.840;18.336;2024-03-02T05:18:24;10.17;;;5.47;;
75009;SDS011;63564;46.840;18.336;2024-03-02T05:21:24;8.07;;;3.43;;
75009;SDS011;63564;46.840;18.336;2024-03-02T05:24:24;8.90;;;4.77;;
75009;SDS011;63564;46.840;18.336;2024-03-02T05:27:27;6.10;;;3.88;;
75009;SDS011;63564;46.840;18.336;2024-03-02T05:30:28;7.93;;;4.00;;
75009;SDS011;63564;46.840;18.336;2024-03-02T05:33:28;7.80;;;4.27;;
75009;SDS011;63564;46.840;18.336;2024-03-02T05:36:31;7.82;;;3.17;;
75009;SDS011;63564;46.840;18.336;2024-03-02T05:39:32;8.67;;;3.80;;
75009;SDS011;63564;46.840;18.336;2024-03-02T05:42:32;7.90;;;3.40;;
75009;SDS011;63564;46.840;18.336;2024-03-02T05:45:32;4.37;;;2.90;;
75009;SDS011;63564;46.840;18.336;2024-03-02T05:48:33;5.80;;;3.60;;
75009;SDS011;63564;46.840;18.336;2024-03-02T05:51:33;7.93;;;3.00;;
75009;SDS011;63564;46.840;18.336;2024-03-02T05:54:33;6.90;;;4.27;;
75009;SDS011;63564;46.840;18.336;2024-03-02T05:57:34;10.13;;;4.07;;
75009;SDS011;63564;46.840;18.336;2024-03-02T06:00:54;8.88;;;4.80;;
75009;SDS011;63564;46.840;18.336;2024-03-02T06:03:55;6.93;;;4.60;;
75009;SDS011;63564;46.840;18.336;2024-03-02T06:06:56;12.20;;;3.78;;
75009;SDS011;63564;46.840;18.336;2024-03-02T06:09:56;11.13;;;3.60;;
75009;SDS011;63564;46.840;18.336;2024-03-02T06:12:57;5.83;;;3.83;;
75009;SDS011;63564;46.840;18.336;2024-03-02T06:15:59;10.07;;;4.78;;
75009;SDS011;63564;46.840;18.336;2024-03-02T06:18:59;6.90;;;3.73;;
75009;SDS011;63564;46.840;18.336;2024-03-02T06:22:00;8.47;;;4.00;;
75009;SDS011;63564;46.840;18.336;2024-03-02T06:25:00;5.67;;;3.33;;
75009;SDS011;63564;46.840;18.336;2024-03-02T06:28:00;9.00;;;4.50;;
75009;SDS011;63564;46.840;18.336;2024-03-02T06:31:01;9.95;;;4.32;;
75009;SDS011;63564;46.840;18.336;2024-03-02T06:34:02;6.73;;;3.37;;
75009;SDS011;63564;46.840;18.336;2024-03-02T06:37:04;11.38;;;4.53;;
75009;SDS011;63564;46.840;18.336;2024-03-02T06:40:05;9.23;;;3.43;;
75009;SDS011;63564;46.840;18.336;2024-03-02T06:43:07;11.43;;;5.03;;
75009;SDS011;63564;46.840;18.336;2024-03-02T06:46:08;9.83;;;4.90;;
75009;SDS011;63564;46.840;18.336;2024-03-02T06:49:09;7.82;;;4.05;;
75009;SDS011;63564;46.840;18.336;2024-03-02T06:52:10;8.77;;;4.88;;
75009;SDS011;63564;46.840;18.336;2024-03-02T06:55:11;11.53;;;5.70;;
75009;SDS011;63564;46.840;18.336;2024-03-02T06:58:14;9.10;;;4.07;;
75009;SDS011;63564;46.840;18.336;2024-03-02T07:01:15;7.43;;;3.55;;
75009;SDS011;63564;46.840;18.336;2024-03-02T07:04:16;11.73;;;4.82;;
75009;SDS011;63564;46.840;18.336;2024-03-02T07:07:16;8.03;;;4.30;;
75009;SDS011;63564;46.840;18.336;2024-03-02T07:10:16;8.97;;;4.90;;
75009;SDS011;63564;46.840;18.336;2024-03-02T07:13:17;10.53;;;5.50;;
75009;SDS011;63564;46.840;18.336;2024-03-02T07:16:17;9.27;;;4.83;;
75009;SDS011;63564;46.840;18.336;2024-03-02T07:19:32;7.60;;;4.00;;
75009;SDS011;63564;46.840;18.336;2024-03-02T07:22:33;11.00;;;4.63;;
75009;SDS011;63564;46.840;18.336;2024-03-02T07:25:33;9.00;;;5.10;;
75009;SDS011;63564;46.840;18.336;2024-03-02T07:28:34;11.13;;;4.57;;
75009;SDS011;63564;46.840;18.336;2024-03-02T07:31:34;12.77;;;5.03;;
75009;SDS011;63564;46.840;18.336;2024-03-02T07:34:35;12.82;;;6.72;;
75009;SDS011;63564;46.840;18.336;2024-03-02T07:37:37;17.05;;;7.03;;
75009;SDS011;63564;46.840;18.336;2024-03-02T07:40:37;10.27;;;4.90;;
75009;SDS011;63564;46.840;18.336;2024-03-02T07:43:38;8.33;;;4.63;;
75009;SDS011;63564;46.840;18.336;2024-03-02T07:46:38;10.87;;;5.57;;
75009;SDS011;63564;46.840;18.336;2024-03-02T07:49:38;14.47;;;5.60;;
75009;SDS011;63564;46.840;18.336;2024-03-02T07:52:39;12.32;;;6.78;;
75009;SDS011;63564;46.840;18.336;2024-03-02T07:55:39;10.30;;;5.93;;
75009;SDS011;63564;46.840;18.336;2024-03-02T07:58:40;18.43;;;6.97;;
75009;SDS011;63564;46.840;18.336;2024-03-02T08:01:42;17.92;;;8.20;;
75009;SDS011;63564;46.840;18.336;2024-03-02T08:04:42;8.97;;;4.07;;
75009;SDS011;63564;46.840;18.336;2024-03-02T08:07:43;12.83;;;5.03;;
75009;SDS011;63564;46.840;18.336;2024-03-02T08:10:44;11.73;;;4.85;;
75009;SDS011;63564;46.840;18.336;2024-03-02T08:13:44;10.37;;;6.27;;
75009;SDS011;63564;46.840;18.336;2024-03-02T08:16:44;11.73;;;5.33;;
75009;SDS011;63564;46.840;18.336;2024-03-02T08:19:45;13.35;;;6.25;;
75009;SDS011;63564;46.840;18.336;2024-03-02T08:22:48;11.53;;;5.83;;
75009;SDS011;63564;46.840;18.336;2024-03-02T08:25:48;14.55;;;5.22;;
75009;SDS011;63564;46.840;18.336;2024-03-02T08:28:49;10.77;;;4.97;;
75009;SDS011;63564;46.840;18.336;2024-03-02T08:31:49;10.87;;;6.87;;
75009;SDS011;63564;46.840;18.336;2024-03-02T08:34:49;13.40;;;5.93;;
75009;SDS011;63564;46.840;18.336;2024-03-02T08:37:50;13.07;;;5.77;;
75009;SDS011;63564;46.840;18.336;2024-03-02T08:40:50;14.50;;;6.20;;
75009;SDS011;63564;46.840;18.336;2024-03-02T08:43:51;11.10;;;5.78;;
75009;SDS011;63564;46.840;18.336;2024-03-02T08:46:52;10.57;;;5.40;;
75009;SDS011;63564;46.840;18.336;2024-03-02T08:49:52;15.73;;;7.57;;
75009;SDS011;63564;46.840;18.336;2024-03-02T08:52:53;16.40;;;6.53;;
75009;SDS011;63564;46.840;18.336;2024-03-02T08:55:53;11.23;;;4.93;;
75009;SDS011;63564;46.840;18.336;2024-03-02T08:58:55;11.77;;;5.55;;
75009;SDS011;63564;46.840;18.336;2024-03-02T09:01:55;11.00;;;5.87;;
75009;SDS011;63564;46.840;18.336;2024-03-02T09:04:56;13.80;;;6.97;;
75009;SDS011;63564;46.840;18.336;2024-03-02T09:07:56;14.83;;;5.77;;
75009;SDS011;63564;46.840;18.336;2024-03-02T09:10:56;11.47;;;6.80;;
75009;SDS011;63564;46.840;18.336;2024-03-02T09:13:57;11.63;;;4.97;;
75009;SDS011;63564;46.840;18.336;2024-03-02T09:16:57;13.90;;;5.27;;
75009;SDS011;63564;46.840;18.336;2024-03-02T09:19:58;7.73;;;3.87;;
75009;SDS011;63564;46.840;18.336;2024-03-02T09:22:58;9.67;;;4.77;;
75009;SDS011;63564;46.840;18.336;2024-03-02T09:25:59;8.57;;;4.13;;
75009;SDS011;63564;46.840;18.336;2024-03-02T09:28:59;9.95;;;5.68;;
75009;SDS011;63564;46.840;18.336;2024-03-02T09:32:00;15.50;;;6.97;;
75009;SDS011;63564;46.840;18.336;2024-03-02T09:35:00;17.57;;;7.93;;
75009;SDS011;63564;46.840;18.336;2024-03-02T09:38:00;14.93;;;7.97;;
75009;SDS011;63564;46.840;18.336;2024-03-02T09:41:01;12.57;;;6.63;;
75009;SDS011;63564;46.840;18.336;2024-03-02T09:44:02;12.30;;;5.75;;
75009;SDS011;63564;46.840;18.336;2024-03-02T09:47:03;14.57;;;6.82;;
75009;SDS011;63564;46.840;18.336;2024-03-02T09:50:03;12.03;;;5.37;;
75009;SDS011;63564;46.840;18.336;2024-03-02T09:53:04;17.57;;;7.53;;
75009;SDS011;63564;46.840;18.336;2024-03-02T09:56:05;15.68;;;8.32;;
75009;SDS011;63564;46.840;18.336;2024-03-02T09:59:05;12.80;;;7.23;;
75009;SDS011;63564;46.840;18.336;2024-03-02T10:02:06;16.63;;;8.13;;
75009;SDS011;63564;46.840;18.336;2024-03-02T10:05:09;15.03;;;7.43;;
75009;SDS011;63564;46.840;18.336;2024-03-02T10:08:10;20.52;;;8.73;;
75009;SDS011;63564;46.840;18.336;2024-03-02T10:11:10;17.20;;;7.10;;
75009;SDS011;63564;46.840;18.336;2024-03-02T10:14:11;15.93;;;7.40;;
75009;SDS011;63564;46.840;18.336;2024-03-02T10:17:13;16.88;;;8.48;;
75009;SDS011;63564;46.840;18.336;2024-03-02T10:20:48;16.70;;;7.97;;
75009;SDS011;63564;46.840;18.336;2024-03-02T10:23:42;13.53;;;7.10;;
75009;SDS011;63564;46.840;18.336;2024-03-02T10:26:42;15.85;;;7.07;;
75009;SDS011;63564;46.840;18.336;2024-03-02T10:29:45;14.60;;;7.47;;
75009;SDS011;63564;46.840;18.336;2024-03-02T10:32:46;18.73;;;8.00;;
75009;SDS011;63564;46.840;18.336;2024-03-02T10:35:49;15.18;;;6.95;;
75009;SDS011;63564;46.840;18.336;2024-03-02T10:38:50;14.47;;;6.73;;
75009;SDS011;63564;46.840;18.336;2024-03-02T10:41:55;17.23;;;7.90;;
75009;SDS011;63564;46.840;18.336;2024-03-02T10:44:56;11.88;;;6.60;;
75009;SDS011;63564;46.840;18.336;2024-03-02T10:47:57;14.20;;;6.33;;
75009;SDS011;63564;46.840;18.336;2024-03-02T10:50:58;13.15;;;6.82;;
75009;SDS011;63564;46.840;18.336;2024-03-02T10:54:02;15.43;;;8.53;;
75009;SDS011;63564;46.840;18.336;2024-03-02T10:57:07;14.68;;;8.48;;
75009;SDS011;63564;46.840;18.336;2024-03-02T11:00:11;12.88;;;6.70;;
75009;SDS011;63564;46.840;18.336;2024-03-02T11:03:14;18.80;;;9.07;;
75009;SDS011;63564;46.840;18.336;2024-03-02T11:06:15;22.93;;;10.73;;
75009;SDS011;63564;46.840;18.336;2024-03-02T11:09:20;16.55;;;7.57;;
75009;SDS011;63564;46.840;18.336;2024-03-02T11:12:29;18.63;;;8.23;;
75009;SDS011;63564;46.840;18.336;2024-03-02T11:15:31;13.93;;;6.50;;
75009;SDS011;63564;46.840;18.336;2024-03-02T11:18:34;15.98;;;8.48;;
75009;SDS011;63564;46.840;18.336;2024-03-02T11:21:35;17.55;;;7.63;;
75009;SDS011;63564;46.840;18.336;2024-03-02T11:24:36;13.57;;;7.47;;
75009;SDS011;63564;46.840;18.336;2024-03-02T11:33:46;22.90;;;9.73;;
75009;SDS011;63564;46.840;18.336;2024-03-02T11:36:47;15.60;;;7.00;;
75009;SDS011;63564;46.840;18.336;2024-03-02T11:39:49;16.97;;;7.87;;
75009;SDS011;63564;46.840;18.336;2024-03-02T11:42:50;14.80;;;7.55;;
75009;SDS011;63564;46.840;18.336;2024-03-02T11:46:03;20.58;;;9.35;;
75009;SDS011;63564;46.840;18.336;2024-03-02T11:49:08;20.37;;;9.37;;
75009;SDS011;63564;46.840;18.336;2024-03-02T11:52:10;17.77;;;8.10;;
75009;SDS011;63564;46.840;18.336;2024-03-02T11:55:11;13.20;;;7.35;;
75009;SDS011;63564;46.840;18.336;2024-03-02T11:58:13;13.38;;;6.78;;
75009;SDS011;63564;46.840;18.336;2024-03-02T12:01:13;15.52;;;7.50;;
75009;SDS011;63564;46.840;18.336;2024-03-02T12:04:14;13.90;;;6.33;;
75009;SDS011;63564;46.840;18.336;2024-03-02T12:07:32;15.20;;;6.53;;
75009;SDS011;63564;46.840;18.336;2024-03-02T12:10:33;13.90;;;6.65;;
75009;SDS011;63564;46.840;18.336;2024-03-02T12:13:34;15.70;;;6.77;;
75009;SDS011;63564;46.840;18.336;2024-03-02T12:16:35;16.55;;;7.50;;
75009;SDS011;63564;46.840;18.336;2024-03-02T12:19:37;14.23;;;6.33;;
75009;SDS011;63564;46.840;18.336;2024-03-02T12:22:37;19.00;;;6.53;;
75009;SDS011;63564;46.840;18.336;2024-03-02T12:25:38;15.90;;;7.80;;
75009;SDS011;63564;46.840;18.336;2024-03-02T12:28:38;11.03;;;6.47;;
75009;SDS011;63564;46.840;18.336;2024-03-02T12:31:39;19.63;;;8.77;;
75009;SDS011;63564;46.840;18.336;2024-03-02T12:34:39;18.53;;;9.00;;
75009;SDS011;63564;46.840;18.336;2024-03-02T12:37:46;19.20;;;7.20;;
75009;SDS011;63564;46.840;18.336;2024-03-02T12:40:50;9.05;;;3.83;;
75009;SDS011;63564;46.840;18.336;2024-03-02T12:43:52;14.57;;;6.68;;
75009;SDS011;63564;46.840;18.336;2024-03-02T12:46:54;13.73;;;7.10;;
75009;SDS011;63564;46.840;18.336;2024-03-02T12:49:54;11.53;;;4.80;;
75009;SDS011;63564;46.840;18.336;2024-03-02T12:52:56;15.55;;;7.72;;
75009;SDS011;63564;46.840;18.336;2024-03-02T12:55:56;12.83;;;7.33;;
75009;SDS011;63564;46.840;18.336;2024-03-02T12:58:57;15.97;;;6.57;;
75009;SDS011;63564;46.840;18.336;2024-03-02T13:01:58;16.80;;;8.52;;
75009;SDS011;63564;46.840;18.336;2024-03-02T13:04:58;12.00;;;5.97;;
75009;SDS011;63564;46.840;18.336;2024-03-02T13:07:59;19.05;;;8.88;;
75009;SDS011;63564;46.840;18.336;2024-03-02T13:10:59;14.47;;;7.43;;
75009;SDS011;63564;46.840;18.336;2024-03-02T13:14:00;18.40;;;8.03;;
75009;SDS011;63564;46.840;18.336;2024-03-02T13:17:01;16.25;;;7.90;;
75009;SDS011;63564;46.840;18.336;2024-03-02T13:20:04;15.07;;;7.47;;
75009;SDS011;63564;46.840;18.336;2024-03-02T13:23:08;16.08;;;6.85;;
75009;SDS011;63564;46.840;18.336;2024-03-02T13:26:08;13.77;;;7.27;;
75009;SDS011;63564;46.840;18.336;2024-03-02T13:29:10;15.68;;;7.35;;
75009;SDS011;63564;46.840;18.336;2024-03-02T13:32:10;18.00;;;9.17;;
75009;SDS011;63564;46.840;18.336;2024-03-02T13:35:11;17.07;;;7.83;;
75009;SDS011;63564;46.840;18.336;2024-03-02T13:38:11;13.87;;;6.03;;
75009;SDS011;63564;46.840;18.336;2024-03-02T13:41:11;15.48;;;6.55;;
75009;SDS011;63564;46.840;18.336;2024-03-02T13:44:12;17.73;;;8.32;;
75009;SDS011;63564;46.840;18.336;2024-03-02T13:47:12;14.77;;;8.00;;
75009;SDS011;63564;46.840;18.336;2024-03-02T13:50:13;14.93;;;7.70;;
75009;SDS011;63564;46.840;18.336;2024-03-02T13:53:14;14.63;;;6.05;;
75009;SDS011;63564;46.840;18.336;2024-03-02T13:56:14;20.87;;;7.00;;
75009;SDS011;63564;46.840;18.336;2024-03-02T13:59:14;15.43;;;7.77;;
75009;SDS011;63564;46.840;18.336;2024-03-02T14:02:15;11.60;;;6.50;;
75009;SDS011;63564;46.840;18.336;2024-03-02T14:05:15;16.33;;;6.40;;
75009;SDS011;63564;46.840;18.336;2024-03-02T14:08:16;10.70;;;6.40;;
75009;SDS011;63564;46.840;18.336;2024-03-02T14:11:17;16.30;;;6.85;;
75009;SDS011;63564;46.840;18.336;2024-03-02T14:14:18;16.43;;;7.57;;
75009;SDS011;63564;46.840;18.336;2024-03-02T14:17:18;15.07;;;6.95;;
75009;SDS011;63564;46.840;18.336;2024-03-02T14:20:19;17.80;;;7.70;;
75009;SDS011;63564;46.840;18.336;2024-03-02T14:23:21;22.53;;;11.53;;
75009;SDS011;63564;46.840;18.336;2024-03-02T14:26:22;25.27;;;10.15;;
75009;SDS011;63564;46.840;18.336;2024-03-02T14:29:22;17.63;;;8.30;;
75009;SDS011;63564;46.840;18.336;2024-03-02T14:32:23;18.03;;;7.43;;
75009;SDS011;63564;46.840;18.336;2024-03-02T14:35:23;19.33;;;8.13;;
75009;SDS011;63564;46.840;18.336;2024-03-02T14:38:24;19.55;;;8.52;;
75009;SDS011;63564;46.840;18.336;2024-03-02T14:41:24;18.50;;;8.80;;
75009;SDS011;63564;46.840;18.336;2024-03-02T14:44:25;13.57;;;7.67;;
75009;SDS011;63564;46.840;18.336;2024-03-02T14:47:25;14.23;;;7.18;;
75009;SDS011;63564;46.840;18.336;2024-03-02T14:50:27;19.43;;;8.90;;
75009;SDS011;63564;46.840;18.336;2024-03-02T14:53:28;20.35;;;8.10;;
75009;SDS011;63564;46.840;18.336;2024-03-02T14:56:28;15.80;;;7.70;;
75009;SDS011;63564;46.840;18.336;2024-03-02T14:59:28;17.77;;;7.17;;
75009;SDS011;63564;46.840;18.336;2024-03-02T15:02:29;15.13;;;8.02;;
75009;SDS011;63564;46.840;18.336;2024-03-02T15:05:30;17.43;;;7.37;;
75009;SDS011;63564;46.840;18.336;2024-03-02T15:08:30;19.57;;;8.10;;
75009;SDS011;63564;46.840;18.336;2024-03-02T15:11:30;17.73;;;7.37;;
75009;SDS011;63564;46.840;18.336;2024-03-02T15:14:31;20.70;;;8.40;;
75009;SDS011;63564;46.840;18.336;2024-03-02T15:17:32;15.32;;;6.63;;
75009;SDS011;63564;46.840;18.336;2024-03-02T15:20:32;14.70;;;7.03;;
75009;SDS011;63564;46.840;18.336;2024-03-02T15:23:32;16.80;;;7.77;;
75009;SDS011;63564;46.840;18.336;2024-03-02T15:26:34;12.90;;;6.70;;
75009;SDS011;63564;46.840;18.336;2024-03-02T15:29:34;16.93;;;7.00;;
75009;SDS011;63564;46.840;18.336;2024-03-02T15:32:35;14.53;;;7.00;;
75009;SDS011;63564;46.840;18.336;2024-03-02T15:35:36;13.98;;;5.07;;
75009;SDS011;63564;46.840;18.336;2024-03-02T15:38:37;17.50;;;6.03;;
75009;SDS011;63564;46.840;18.336;2024-03-02T15:41:37;15.40;;;7.22;;
75009;SDS011;63564;46.840;18.336;2024-03-02T15:44:40;19.25;;;8.02;;
75009;SDS011;63564;46.840;18.336;2024-03-02T15:47:41;13.68;;;6.35;;
75009;SDS011;63564;46.840;18.336;2024-03-02T15:50:42;15.20;;;6.17;;
75009;SDS011;63564;46.840;18.336;2024-03-02T15:53:42;14.20;;;6.72;;
75009;SDS011;63564;46.840;18.336;2024-03-02T15:56:43;13.17;;;7.37;;
75009;SDS011;63564;46.840;18.336;2024-03-02T15:59:44;19.17;;;8.15;;
75009;SDS011;63564;46.840;18.336;2024-03-02T16:02:44;24.30;;;8.37;;
75009;SDS011;63564;46.840;18.336;2024-03-02T16:05:45;25.73;;;10.53;;
75009;SDS011;63564;46.840;18.336;2024-03-02T16:08:45;24.50;;;10.00;;
75009;SDS011;63564;46.840;18.336;2024-03-02T16:11:45;27.13;;;10.33;;
75009;SDS011;63564;46.840;18.336;2024-03-02T16:14:46;29.90;;;9.90;;
75009;SDS011;63564;46.840;18.336;2024-03-02T16:17:46;25.70;;;10.23;;
75009;SDS011;63564;46.840;18.336;2024-03-02T16:20:46;41.27;;;11.90;;
75009;SDS011;63564;46.840;18.336;2024-03-02T16:23:47;23.03;;;10.90;;
75009;SDS011;63564;46.840;18.336;2024-03-02T16:26:47;18.60;;;10.17;;
75009;SDS011;63564;46.840;18.336;2024-03-02T16:29:48;16.50;;;6.97;;
75009;SDS011;63564;46.840;18.336;2024-03-02T16:32:48;14.03;;;7.70;;
75009;SDS011;63564;46.840;18.336;2024-03-02T16:35:48;15.70;;;6.97;;
75009;SDS011;63564;46.840;18.336;2024-03-02T16:38:49;17.73;;;7.05;;
75009;SDS011;63564;46.840;18.336;2024-03-02T16:41:50;22.38;;;8.20;;
75009;SDS011;63564;46.840;18.336;2024-03-02T16:44:51;15.30;;;7.97;;
75009;SDS011;63564;46.840;18.336;2024-03-02T16:47:54;20.05;;;8.30;;
75009;SDS011;63564;46.840;18.336;2024-03-02T16:50:55;17.67;;;8.37;;
75009;SDS011;63564;46.840;18.336;2024-03-02T16:53:55;18.37;;;7.30;;
75009;SDS011;63564;46.840;18.336;2024-03-02T16:56:55;20.20;;;8.63;;
75009;SDS011;63564;46.840;18.336;2024-03-02T16:59:56;16.93;;;7.67;;
75009;SDS011;63564;46.840;18.336;2024-03-02T17:02:56;12.90;;;6.53;;
75009;SDS011;63564;46.840;18.336;2024-03-02T17:05:56;17.13;;;7.67;;
75009;SDS011;63564;46.840;18.336;2024-03-02T17:08:57;14.60;;;7.13;;
75009;SDS011;63564;46.840;18.336;2024-03-02T17:11:58;12.88;;;5.50;;
75009;SDS011;63564;46.840;18.336;2024-03-02T17:14:58;12.67;;;6.27;;
75009;SDS011;63564;46.840;18.336;2024-03-02T17:17:58;10.33;;;5.87;;
75009;SDS011;63564;46.840;18.336;2024-03-02T17:20:59;15.30;;;6.90;;
75009;SDS011;63564;46.840;18.336;2024-03-02T17:23:59;20.60;;;7.40;;
75009;SDS011;63564;46.840;18.336;2024-03-02T17:27:02;11.57;;;5.45;;
75009;SDS011;63564;46.840;18.336;2024-03-02T17:30:03;14.00;;;7.40;;
75009;SDS011;63564;46.840;18.336;2024-03-02T17:33:03;16.58;;;6.05;;
75009;SDS011;63564;46.840;18.336;2024-03-02T17:36:04;14.97;;;6.97;;
75009;SDS011;63564;46.840;18.336;2024-03-02T17:39:05;16.38;;;6.28;;
75009;SDS011;63564;46.840;18.336;2024-03-02T17:42:05;12.97;;;5.80;;
75009;SDS011;63564;46.840;18.336;2024-03-02T17:45:05;11.60;;;6.53;;
75009;SDS011;63564;46.840;18.336;2024-03-02T17:48:06;16.97;;;7.53;;
75009;SDS011;63564;46.840;18.336;2024-03-02T17:51:07;15.65;;;8.88;;
75009;SDS011;63564;46.840;18.336;2024-03-02T17:54:08;14.83;;;7.20;;